Herbert — DC7798 — position and weather

sailwx.info

Track history (hours):
 
Tides and Currents Weather Stations Pressure Air Temp Water Temp Dewpoint Dewpoint Depression Visibility Wind Speed Wind Dir Waves Ship Positions

Herbert

Last reported at 2017-Oct-19 06:20 UTC. Time now 2017-Oct-20 07:24 UTC.
Position N 48°12' E 014°57'.

Length 80 m; draft 0.3 m.

Type: Ship. MMSI: 211625650.

Date/timePositionNaut miles runAvg speedWind from/ knotsBaromVisibWave heightAir tempDewpointWater temp
2017-Oct-19 06:20N 48°12' E 014°57'2 6.4
2017-Oct-19 06:01N 48°12' E 015°00'3 5.3
2017-Oct-19 05:30N 48°11' E 015°04'0 0.1
2017-Oct-19 05:00N 48°11' E 015°04'2 3.7
2017-Oct-19 04:30N 48°10' E 015°07'1 2.7
2017-Oct-19 04:00N 48°12' E 015°07'0 0.0
2017-Oct-19 03:30N 48°12' E 015°07'0 0.0
2017-Oct-19 03:00N 48°12' E 015°07'0 0.0
2017-Oct-19 02:30N 48°12' E 015°07'0 0.0
2017-Oct-19 02:00N 48°12' E 015°07'0 0.0
2017-Oct-19 01:30N 48°12' E 015°07'0 0.0
2017-Oct-19 01:00N 48°12' E 015°07'0 0.0
2017-Oct-19 00:30N 48°12' E 015°07'0 0.0
2017-Oct-19 00:00N 48°12' E 015°07'0 0.0
2017-Oct-18 23:30N 48°12' E 015°07'0 0.0
2017-Oct-18 23:00N 48°12' E 015°07'0 0.0
2017-Oct-18 22:28N 48°12' E 015°07'0 0.0
2017-Oct-18 21:58N 48°12' E 015°07'0 0.0
2017-Oct-18 21:28N 48°12' E 015°07'0 0.0
2017-Oct-18 20:59N 48°12' E 015°07'0 0.0
2017-Oct-18 20:30N 48°12' E 015°07'0 0.0
2017-Oct-18 19:59N 48°12' E 015°07'0 0.0
2017-Oct-18 19:28N 48°12' E 015°07'0 0.0
2017-Oct-18 19:00N 48°12' E 015°07'0 0.0
2017-Oct-18 18:29N 48°12' E 015°07'0 0.7
2017-Oct-18 18:00N 48°12' E 015°07'3 5.6
2017-Oct-18 17:30N 48°13' E 015°11'3 6.6
2017-Oct-18 17:00N 48°13' E 015°16'64 2.1
2017-Oct-17 10:10N 48°07' E 016°50'2 2.9
2017-Oct-17 09:35N 48°08' E 016°53'0 2.6
2017-Oct-17 09:30N 48°08' E 016°53'1 2.6
2017-Oct-17 09:00N 48°09' E 016°55'1 2.3
2017-Oct-17 08:31N 48°09' E 016°56'1 2.6
2017-Oct-17 08:00N 48°10' E 016°57'1 2.2
2017-Oct-17 07:30N 48°10' E 016°59'1 2.6
2017-Oct-17 07:00N 48°09' E 017°01'1 2.5
2017-Oct-17 06:30N 48°08' E 017°02'1 2.7
2017-Oct-17 06:00N 48°09' E 017°04'2 3.1
2017-Oct-17 05:30N 48°08' E 017°06'2 3.8
2017-Oct-17 05:00N 48°08' E 017°09'2 3.9
2017-Oct-17 04:30N 48°06' E 017°09'1 2.2
2017-Oct-17 03:58N 48°05' E 017°09'0 0.0
2017-Oct-17 03:15N 48°05' E 017°09'0 0.0
2017-Oct-17 02:57N 48°05' E 017°09'0 0.0
2017-Oct-17 02:30N 48°05' E 017°09'0 0.0
2017-Oct-17 01:57N 48°05' E 017°09'0 0.0
2017-Oct-17 01:27N 48°05' E 017°09'0 0.0
2017-Oct-17 00:59N 48°05' E 017°09'0 0.0
2017-Oct-17 00:26N 48°05' E 017°09'0 0.0
2017-Oct-16 23:59N 48°05' E 017°09'0 0.0
2017-Oct-16 23:29N 48°05' E 017°09'0 0.0
2017-Oct-16 22:59N 48°05' E 017°09'0 0.0
2017-Oct-16 22:30N 48°05' E 017°09'0 0.0
2017-Oct-16 22:00N 48°05' E 017°09'0 0.0
2017-Oct-16 21:30N 48°05' E 017°09'0 0.0
2017-Oct-16 21:00N 48°05' E 017°09'0 0.0
2017-Oct-16 20:30N 48°05' E 017°09'0 0.0
2017-Oct-16 20:00N 48°05' E 017°09'0 0.0
2017-Oct-16 19:29N 48°05' E 017°09'0 0.0
2017-Oct-16 18:57N 48°05' E 017°09'0 0.0
2017-Oct-16 18:30N 48°05' E 017°09'0 0.0
2017-Oct-16 18:00N 48°05' E 017°09'0 0.0
2017-Oct-16 17:18N 48°05' E 017°09'0 0.0
2017-Oct-16 17:01N 48°05' E 017°09'1 2.4
2017-Oct-16 16:30N 48°04' E 017°10'1 3.0
2017-Oct-16 16:00N 48°03' E 017°12'2 3.9
2017-Oct-16 15:30N 48°02' E 017°15'2 4.4
2017-Oct-16 15:01N 48°00' E 017°17'5 5.0
2017-Oct-16 14:00N 47°58' E 017°24'3 5.2
2017-Oct-16 13:30N 47°57' E 017°27'3 5.2
2017-Oct-16 13:00N 47°55' E 017°30'3 5.3
2017-Oct-16 12:30N 47°53' E 017°32'0 0.6
2017-Oct-16 11:53N 47°53' E 017°33'0 0.0
2017-Oct-16 11:30N 47°53' E 017°33'2 2.8
2017-Oct-16 10:55N 47°51' E 017°34'3 4.6
2017-Oct-16 10:10N 47°49' E 017°37'4 3.4
2017-Oct-16 08:58N 47°46' E 017°42'3 2.9
2017-Oct-16 07:52N 47°45' E 017°46'54 1.9
2017-Oct-15 03:42N 47°36' E 019°05'1 5.0
2017-Oct-15 03:29N 47°35' E 019°04'2 0.2
2017-Oct-14 16:34N 47°33' E 019°04'0 0.2
2017-Oct-14 16:30N 47°33' E 019°04'2 3.4
2017-Oct-14 16:00N 47°31' E 019°03'2 3.6
2017-Oct-14 15:30N 47°30' E 019°03'2 3.7
2017-Oct-14 15:00N 47°28' E 019°04'1 3.0
2017-Oct-14 14:30N 47°27' E 019°03'0 0.1
2017-Oct-14 14:00N 47°27' E 019°03'0 0.0
2017-Oct-14 13:30N 47°27' E 019°03'0 0.0
2017-Oct-14 13:00N 47°27' E 019°03'0 0.1
2017-Oct-14 12:30N 47°27' E 019°03'1 2.9
2017-Oct-14 12:00N 47°25' E 019°03'2 3.8
2017-Oct-14 11:30N 47°23' E 019°01'  
2017-Oct-09 11:06N 47°20' E 018°57'4 8.7
2017-Oct-09 10:41N 47°23' E 019°00'2 9.6
2017-Oct-09 10:29N 47°24' E 019°02'510.0
2017-Oct-09 10:00N 47°29' E 019°03'5 9.8
2017-Oct-09 09:31N 47°34' E 019°04'  
Track history (hours):
 
Tides and Currents Weather Stations Pressure Air Temp Water Temp Dewpoint Dewpoint Depression Visibility Wind Speed Wind Dir Waves Ship Positions

Herbert

Last reported at 2017-Oct-19 06:20 UTC. Time now 2017-Oct-20 07:24 UTC.
Position N 48°12' E 014°57'.

Length 80 m; draft 0.3 m.

Type: Ship. MMSI: 211625650.

Date/timePositionNaut miles runAvg speedWind from/ knotsBaromVisibWave heightAir tempDewpointWater temp
2017-Oct-19 06:20N 48°12' E 014°57'2 6.4
2017-Oct-19 06:01N 48°12' E 015°00'3 5.3
2017-Oct-19 05:30N 48°11' E 015°04'0 0.1
2017-Oct-19 05:00N 48°11' E 015°04'2 3.7
2017-Oct-19 04:30N 48°10' E 015°07'1 2.7
2017-Oct-19 04:00N 48°12' E 015°07'0 0.0
2017-Oct-19 03:30N 48°12' E 015°07'0 0.0
2017-Oct-19 03:00N 48°12' E 015°07'0 0.0
2017-Oct-19 02:30N 48°12' E 015°07'0 0.0
2017-Oct-19 02:00N 48°12' E 015°07'0 0.0
2017-Oct-19 01:30N 48°12' E 015°07'0 0.0
2017-Oct-19 01:00N 48°12' E 015°07'0 0.0
2017-Oct-19 00:30N 48°12' E 015°07'0 0.0
2017-Oct-19 00:00N 48°12' E 015°07'0 0.0
2017-Oct-18 23:30N 48°12' E 015°07'0 0.0
2017-Oct-18 23:00N 48°12' E 015°07'0 0.0
2017-Oct-18 22:28N 48°12' E 015°07'0 0.0
2017-Oct-18 21:58N 48°12' E 015°07'0 0.0
2017-Oct-18 21:28N 48°12' E 015°07'0 0.0
2017-Oct-18 20:59N 48°12' E 015°07'0 0.0
2017-Oct-18 20:30N 48°12' E 015°07'0 0.0
2017-Oct-18 19:59N 48°12' E 015°07'0 0.0
2017-Oct-18 19:28N 48°12' E 015°07'0 0.0
2017-Oct-18 19:00N 48°12' E 015°07'0 0.0
2017-Oct-18 18:29N 48°12' E 015°07'0 0.7
2017-Oct-18 18:00N 48°12' E 015°07'3 5.6
2017-Oct-18 17:30N 48°13' E 015°11'3 6.6
2017-Oct-18 17:00N 48°13' E 015°16'64 2.1
2017-Oct-17 10:10N 48°07' E 016°50'2 2.9
2017-Oct-17 09:35N 48°08' E 016°53'0 2.6
2017-Oct-17 09:30N 48°08' E 016°53'1 2.6
2017-Oct-17 09:00N 48°09' E 016°55'1 2.3
2017-Oct-17 08:31N 48°09' E 016°56'1 2.6
2017-Oct-17 08:00N 48°10' E 016°57'1 2.2
2017-Oct-17 07:30N 48°10' E 016°59'1 2.6
2017-Oct-17 07:00N 48°09' E 017°01'1 2.5
2017-Oct-17 06:30N 48°08' E 017°02'1 2.7
2017-Oct-17 06:00N 48°09' E 017°04'2 3.1
2017-Oct-17 05:30N 48°08' E 017°06'2 3.8
2017-Oct-17 05:00N 48°08' E 017°09'2 3.9
2017-Oct-17 04:30N 48°06' E 017°09'1 2.2
2017-Oct-17 03:58N 48°05' E 017°09'0 0.0
2017-Oct-17 03:15N 48°05' E 017°09'0 0.0
2017-Oct-17 02:57N 48°05' E 017°09'0 0.0
2017-Oct-17 02:30N 48°05' E 017°09'0 0.0
2017-Oct-17 01:57N 48°05' E 017°09'0 0.0
2017-Oct-17 01:27N 48°05' E 017°09'0 0.0
2017-Oct-17 00:59N 48°05' E 017°09'0 0.0
2017-Oct-17 00:26N 48°05' E 017°09'0 0.0
2017-Oct-16 23:59N 48°05' E 017°09'0 0.0
2017-Oct-16 23:29N 48°05' E 017°09'0 0.0
2017-Oct-16 22:59N 48°05' E 017°09'0 0.0
2017-Oct-16 22:30N 48°05' E 017°09'0 0.0
2017-Oct-16 22:00N 48°05' E 017°09'0 0.0
2017-Oct-16 21:30N 48°05' E 017°09'0 0.0
2017-Oct-16 21:00N 48°05' E 017°09'0 0.0
2017-Oct-16 20:30N 48°05' E 017°09'0 0.0
2017-Oct-16 20:00N 48°05' E 017°09'0 0.0
2017-Oct-16 19:29N 48°05' E 017°09'0 0.0
2017-Oct-16 18:57N 48°05' E 017°09'0 0.0
2017-Oct-16 18:30N 48°05' E 017°09'0 0.0
2017-Oct-16 18:00N 48°05' E 017°09'0 0.0
2017-Oct-16 17:18N 48°05' E 017°09'0 0.0
2017-Oct-16 17:01N 48°05' E 017°09'1 2.4
2017-Oct-16 16:30N 48°04' E 017°10'1 3.0
2017-Oct-16 16:00N 48°03' E 017°12'2 3.9
2017-Oct-16 15:30N 48°02' E 017°15'2 4.4
2017-Oct-16 15:01N 48°00' E 017°17'5 5.0
2017-Oct-16 14:00N 47°58' E 017°24'3 5.2
2017-Oct-16 13:30N 47°57' E 017°27'3 5.2
2017-Oct-16 13:00N 47°55' E 017°30'3 5.3
2017-Oct-16 12:30N 47°53' E 017°32'0 0.6
2017-Oct-16 11:53N 47°53' E 017°33'0 0.0
2017-Oct-16 11:30N 47°53' E 017°33'2 2.8
2017-Oct-16 10:55N 47°51' E 017°34'3 4.6
2017-Oct-16 10:10N 47°49' E 017°37'4 3.4
2017-Oct-16 08:58N 47°46' E 017°42'3 2.9
2017-Oct-16 07:52N 47°45' E 017°46'54 1.9
2017-Oct-15 03:42N 47°36' E 019°05'1 5.0
2017-Oct-15 03:29N 47°35' E 019°04'2 0.2
2017-Oct-14 16:34N 47°33' E 019°04'0 0.2
2017-Oct-14 16:30N 47°33' E 019°04'2 3.4
2017-Oct-14 16:00N 47°31' E 019°03'2 3.6
2017-Oct-14 15:30N 47°30' E 019°03'2 3.7
2017-Oct-14 15:00N 47°28' E 019°04'1 3.0
2017-Oct-14 14:30N 47°27' E 019°03'0 0.1
2017-Oct-14 14:00N 47°27' E 019°03'0 0.0
2017-Oct-14 13:30N 47°27' E 019°03'0 0.0
2017-Oct-14 13:00N 47°27' E 019°03'0 0.1
2017-Oct-14 12:30N 47°27' E 019°03'1 2.9
2017-Oct-14 12:00N 47°25' E 019°03'2 3.8
2017-Oct-14 11:30N 47°23' E 019°01'  
2017-Oct-09 11:06N 47°20' E 018°57'4 8.7
2017-Oct-09 10:41N 47°23' E 019°00'2 9.6
2017-Oct-09 10:29N 47°24' E 019°02'510.0
2017-Oct-09 10:00N 47°29' E 019°03'5 9.8
2017-Oct-09 09:31N 47°34' E 019°04'  

Dump ship's entire track history